sensor_id;sensor_type;location;lat;lon;timestamp;pressure;altitude;pressure_sealevel;temperature;humidity
67738;BME280;54534;43.612;1.572;2023-02-20T00:02:06;100234.63;;;18.08;48.67
67738;BME280;54534;43.612;1.572;2023-02-20T00:04:32;100235.50;;;18.09;48.80
67738;BME280;54534;43.612;1.572;2023-02-20T00:06:57;100233.78;;;18.08;48.44
67738;BME280;54534;43.612;1.572;2023-02-20T00:09:23;100231.22;;;18.06;48.63
67738;BME280;54534;43.612;1.572;2023-02-20T00:11:48;100233.00;;;18.06;48.38
67738;BME280;54534;43.612;1.572;2023-02-20T00:14:14;100229.50;;;18.05;48.05
67738;BME280;54534;43.612;1.572;2023-02-20T00:16:39;100226.84;;;18.05;48.46
67738;BME280;54534;43.612;1.572;2023-02-20T00:19:04;100229.50;;;18.05;48.44
67738;BME280;54534;43.612;1.572;2023-02-20T00:21:30;100223.34;;;18.05;48.32
67738;BME280;54534;43.612;1.572;2023-02-20T00:23:55;100210.97;;;18.04;48.42
67738;BME280;54534;43.612;1.572;2023-02-20T00:26:21;100215.44;;;18.03;48.21
67738;BME280;54534;43.612;1.572;2023-02-20T00:28:46;100212.88;;;18.01;48.02
67738;BME280;54534;43.612;1.572;2023-02-20T00:31:14;100208.41;;;18.02;48.03
67738;BME280;54534;43.612;1.572;2023-02-20T00:33:41;100211.16;;;18.00;48.20
67738;BME280;54534;43.612;1.572;2023-02-20T00:36:06;100208.50;;;18.00;47.98
67738;BME280;54534;43.612;1.572;2023-02-20T00:38:32;100212.00;;;18.01;48.46
67738;BME280;54534;43.612;1.572;2023-02-20T00:40:57;100204.09;;;17.99;48.08
67738;BME280;54534;43.612;1.572;2023-02-20T00:43:22;100208.59;;;17.99;47.82
67738;BME280;54534;43.612;1.572;2023-02-20T00:45:48;100205.94;;;17.99;48.20
67738;BME280;54534;43.612;1.572;2023-02-20T00:48:13;100201.56;;;17.98;48.06
67738;BME280;54534;43.612;1.572;2023-02-20T00:50:39;100206.00;;;17.97;47.90
67738;BME280;54534;43.612;1.572;2023-02-20T00:53:04;100214.97;;;17.96;47.95
67738;BME280;54534;43.612;1.572;2023-02-20T00:55:29;100207.81;;;17.97;47.98
67738;BME280;54534;43.612;1.572;2023-02-20T00:57:55;100203.47;;;17.96;47.84
67738;BME280;54534;43.612;1.572;2023-02-20T01:00:24;100199.84;;;17.97;47.84
67738;BME280;54534;43.612;1.572;2023-02-20T01:02:50;100199.09;;;17.95;48.06
67738;BME280;54534;43.612;1.572;2023-02-20T01:05:15;100200.88;;;17.94;47.96
67738;BME280;54534;43.612;1.572;2023-02-20T01:07:41;100202.72;;;17.94;47.85
67738;BME280;54534;43.612;1.572;2023-02-20T01:10:08;100196.53;;;17.93;48.11
67738;BME280;54534;43.612;1.572;2023-02-20T01:12:33;100178.94;;;17.90;47.69
67738;BME280;54534;43.612;1.572;2023-02-20T01:14:59;100188.63;;;17.92;47.97
67738;BME280;54534;43.612;1.572;2023-02-20T01:17:24;100184.28;;;17.90;48.02
67738;BME280;54534;43.612;1.572;2023-02-20T01:19:49;100178.94;;;17.90;47.76
67738;BME280;54534;43.612;1.572;2023-02-20T01:22:15;100176.28;;;17.90;47.62
67738;BME280;54534;43.612;1.572;2023-02-20T01:24:40;100183.50;;;17.88;47.76
67738;BME280;54534;43.612;1.572;2023-02-20T01:27:08;100187.00;;;17.89;47.59
67738;BME280;54534;43.612;1.572;2023-02-20T01:29:33;100185.31;;;17.88;47.47
67738;BME280;54534;43.612;1.572;2023-02-20T01:31:59;100180.00;;;17.88;47.49
67738;BME280;54534;43.612;1.572;2023-02-20T01:34:24;100183.59;;;17.87;47.62
67738;BME280;54534;43.612;1.572;2023-02-20T01:36:52;100181.78;;;17.87;47.60
67738;BME280;54534;43.612;1.572;2023-02-20T01:39:24;100175.72;;;17.85;47.89
67738;BME280;54534;43.612;1.572;2023-02-20T01:41:53;100177.41;;;17.86;47.93
67738;BME280;54534;43.612;1.572;2023-02-20T01:44:22;100175.78;;;17.84;47.71
67738;BME280;54534;43.612;1.572;2023-02-20T01:46:51;100180.19;;;17.85;48.00
67738;BME280;54534;43.612;1.572;2023-02-20T01:49:21;100176.66;;;17.84;47.74
67738;BME280;54534;43.612;1.572;2023-02-20T01:51:54;100174.09;;;17.83;47.94
67738;BME280;54534;43.612;1.572;2023-02-20T01:54:22;100169.66;;;17.83;47.87
67738;BME280;54534;43.612;1.572;2023-02-20T01:56:50;100167.91;;;17.82;47.87
67738;BME280;54534;43.612;1.572;2023-02-20T01:59:19;100154.72;;;17.81;47.56
67738;BME280;54534;43.612;1.572;2023-02-20T02:01:46;100158.22;;;17.81;47.45
67738;BME280;54534;43.612;1.572;2023-02-20T02:04:12;100162.72;;;17.81;47.35
67738;BME280;54534;43.612;1.572;2023-02-20T02:06:42;100162.78;;;17.79;47.68
67738;BME280;54534;43.612;1.572;2023-02-20T02:09:31;100163.66;;;17.79;47.62
67738;BME280;54534;43.612;1.572;2023-02-20T02:11:59;100164.59;;;17.78;47.67
67738;BME280;54534;43.612;1.572;2023-02-20T02:14:24;100171.72;;;17.78;47.44
67738;BME280;54534;43.612;1.572;2023-02-20T02:31:42;100159.66;;;17.72;47.66
67738;BME280;54534;43.612;1.572;2023-02-20T02:37:04;100163.25;;;17.71;47.29
67738;BME280;54534;43.612;1.572;2023-02-20T02:39:41;100159.75;;;17.71;47.29
67738;BME280;54534;43.612;1.572;2023-02-20T02:50:26;100154.53;;;17.69;47.20
67738;BME280;54534;43.612;1.572;2023-02-20T02:52:54;100151.00;;;17.68;47.67
67738;BME280;54534;43.612;1.572;2023-02-20T02:55:28;100152.81;;;17.68;47.71
67738;BME280;54534;43.612;1.572;2023-02-20T02:57:54;100151.97;;;17.67;47.60
67738;BME280;54534;43.612;1.572;2023-02-20T03:00:24;100150.13;;;17.68;47.52
67738;BME280;54534;43.612;1.572;2023-02-20T03:05:51;100150.25;;;17.66;47.18
67738;BME280;54534;43.612;1.572;2023-02-20T03:08:35;100146.72;;;17.66;47.35
67738;BME280;54534;43.612;1.572;2023-02-20T03:11:05;100145.88;;;17.65;47.24
67738;BME280;54534;43.612;1.572;2023-02-20T03:13:39;100148.53;;;17.65;47.47
67738;BME280;54534;43.612;1.572;2023-02-20T03:16:32;100141.53;;;17.64;47.20
67738;BME280;54534;43.612;1.572;2023-02-20T03:19:02;100140.75;;;17.62;47.36
67738;BME280;54534;43.612;1.572;2023-02-20T03:21:31;100139.78;;;17.63;47.44
67738;BME280;54534;43.612;1.572;2023-02-20T03:24:00;100129.25;;;17.62;47.28
67738;BME280;54534;43.612;1.572;2023-02-20T03:26:31;100132.78;;;17.62;47.33
67738;BME280;54534;43.612;1.572;2023-02-20T03:29:05;100138.94;;;17.63;47.31
67738;BME280;54534;43.612;1.572;2023-02-20T03:39:48;100125.00;;;17.59;47.47
67738;BME280;54534;43.612;1.572;2023-02-20T03:42:36;100122.41;;;17.58;47.37
67738;BME280;54534;43.612;1.572;2023-02-20T03:45:22;100130.38;;;17.58;47.30
67738;BME280;54534;43.612;1.572;2023-02-20T03:47:51;100129.75;;;17.54;47.03
67738;BME280;54534;43.612;1.572;2023-02-20T03:50:18;100124.31;;;17.55;47.14
67738;BME280;54534;43.612;1.572;2023-02-20T03:52:44;100136.75;;;17.55;47.10
67738;BME280;54534;43.612;1.572;2023-02-20T03:55:09;100130.50;;;17.56;46.97
67738;BME280;54534;43.612;1.572;2023-02-20T03:57:42;100126.09;;;17.55;46.99
67738;BME280;54534;43.612;1.572;2023-02-20T04:00:17;100132.28;;;17.55;47.01
67738;BME280;54534;43.612;1.572;2023-02-20T04:02:45;100128.00;;;17.53;46.83
67738;BME280;54534;43.612;1.572;2023-02-20T04:05:15;100128.00;;;17.53;46.89
67738;BME280;54534;43.612;1.572;2023-02-20T04:07:48;100122.69;;;17.53;47.08
67738;BME280;54534;43.612;1.572;2023-02-20T04:10:21;100122.69;;;17.53;46.98
67738;BME280;54534;43.612;1.572;2023-02-20T04:12:48;100133.34;;;17.53;46.76
67738;BME280;54534;43.612;1.572;2023-02-20T04:15:17;100126.28;;;17.52;46.68
67738;BME280;54534;43.612;1.572;2023-02-20T04:17:49;100132.47;;;17.52;46.81
67738;BME280;54534;43.612;1.572;2023-02-20T04:20:17;100133.44;;;17.51;47.14
67738;BME280;54534;43.612;1.572;2023-02-20T04:22:44;100138.75;;;17.51;46.98
67738;BME280;54534;43.612;1.572;2023-02-20T04:25:31;100131.72;;;17.50;46.99
67738;BME280;54534;43.612;1.572;2023-02-20T04:28:00;100131.72;;;17.50;47.11
67738;BME280;54534;43.612;1.572;2023-02-20T04:30:26;100137.97;;;17.49;46.98
67738;BME280;54534;43.612;1.572;2023-02-20T04:32:52;100133.50;;;17.50;46.67
67738;BME280;54534;43.612;1.572;2023-02-20T04:35:19;100137.97;;;17.49;46.78
67738;BME280;54534;43.612;1.572;2023-02-20T04:37:44;100131.81;;;17.49;46.55
67738;BME280;54534;43.612;1.572;2023-02-20T04:40:13;100141.66;;;17.47;46.99
67738;BME280;54534;43.612;1.572;2023-02-20T04:42:38;100145.13;;;17.49;46.55
67738;BME280;54534;43.612;1.572;2023-02-20T04:45:04;100145.19;;;17.47;47.15
67738;BME280;54534;43.612;1.572;2023-02-20T04:47:30;100149.66;;;17.47;46.71
67738;BME280;54534;43.612;1.572;2023-02-20T04:49:55;100148.81;;;17.46;46.85
67738;BME280;54534;43.612;1.572;2023-02-20T04:52:20;100140.91;;;17.44;46.49
67738;BME280;54534;43.612;1.572;2023-02-20T04:54:46;100142.63;;;17.45;46.76
67738;BME280;54534;43.612;1.572;2023-02-20T04:57:12;100141.78;;;17.45;46.76
67738;BME280;54534;43.612;1.572;2023-02-20T04:59:38;100140.91;;;17.44;46.54
67738;BME280;54534;43.612;1.572;2023-02-20T05:02:03;100138.25;;;17.44;46.57
67738;BME280;54534;43.612;1.572;2023-02-20T05:04:28;100146.22;;;17.44;46.77
67738;BME280;54534;43.612;1.572;2023-02-20T05:06:55;100146.34;;;17.43;46.49
67738;BME280;54534;43.612;1.572;2023-02-20T05:09:21;100148.13;;;17.42;46.38
67738;BME280;54534;43.612;1.572;2023-02-20T05:11:47;100141.09;;;17.41;46.53
67738;BME280;54534;43.612;1.572;2023-02-20T05:14:13;100150.91;;;17.41;46.43
67738;BME280;54534;43.612;1.572;2023-02-20T05:16:39;100149.06;;;17.41;46.76
67738;BME280;54534;43.612;1.572;2023-02-20T05:19:06;100146.41;;;17.41;46.65
67738;BME280;54534;43.612;1.572;2023-02-20T05:21:32;100152.69;;;17.40;46.39
67738;BME280;54534;43.612;1.572;2023-02-20T05:24:17;100150.97;;;17.39;46.77
67738;BME280;54534;43.612;1.572;2023-02-20T05:26:42;100147.44;;;17.39;46.76
67738;BME280;54534;43.612;1.572;2023-02-20T05:29:08;100145.75;;;17.38;46.66
67738;BME280;54534;43.612;1.572;2023-02-20T05:31:39;100151.06;;;17.38;46.36
67738;BME280;54534;43.612;1.572;2023-02-20T05:34:05;100151.94;;;17.38;46.86
67738;BME280;54534;43.612;1.572;2023-02-20T05:36:31;100151.16;;;17.36;46.76
67738;BME280;54534;43.612;1.572;2023-02-20T05:38:56;100145.84;;;17.36;46.37
67738;BME280;54534;43.612;1.572;2023-02-20T05:41:22;100152.97;;;17.36;46.34
67738;BME280;54534;43.612;1.572;2023-02-20T05:43:48;100148.50;;;17.36;46.26
67738;BME280;54534;43.612;1.572;2023-02-20T05:46:14;100143.19;;;17.36;46.38
67738;BME280;54534;43.612;1.572;2023-02-20T05:48:40;100145.00;;;17.36;46.38
67738;BME280;54534;43.612;1.572;2023-02-20T05:51:06;100140.63;;;17.34;46.39
67738;BME280;54534;43.612;1.572;2023-02-20T05:53:31;100135.31;;;17.34;46.41
67738;BME280;54534;43.612;1.572;2023-02-20T05:55:57;100132.75;;;17.33;46.41
67738;BME280;54534;43.612;1.572;2023-02-20T05:58:23;100130.94;;;17.33;46.80
67738;BME280;54534;43.612;1.572;2023-02-20T06:00:49;100130.09;;;17.33;46.72
67738;BME280;54534;43.612;1.572;2023-02-20T06:03:15;100130.09;;;17.33;46.35
67738;BME280;54534;43.612;1.572;2023-02-20T06:05:41;100127.44;;;17.33;46.35
67738;BME280;54534;43.612;1.572;2023-02-20T06:08:07;100124.78;;;17.33;46.47
67738;BME280;54534;43.612;1.572;2023-02-20T06:10:32;100127.44;;;17.33;46.67
67738;BME280;54534;43.612;1.572;2023-02-20T06:12:58;100122.13;;;17.33;46.74
67738;BME280;54534;43.612;1.572;2023-02-20T06:15:23;100120.41;;;17.32;47.00
67738;BME280;54534;43.612;1.572;2023-02-20T06:17:49;100118.69;;;17.31;46.72
67738;BME280;54534;43.612;1.572;2023-02-20T06:20:14;100113.38;;;17.31;46.78
67738;BME280;54534;43.612;1.572;2023-02-20T06:22:40;100111.56;;;17.31;46.96
67738;BME280;54534;43.612;1.572;2023-02-20T06:25:06;100113.38;;;17.31;46.94
67738;BME280;54534;43.612;1.572;2023-02-20T06:27:31;100107.41;;;17.27;46.63
67738;BME280;54534;43.612;1.572;2023-02-20T06:29:57;100111.66;;;17.30;47.00
67738;BME280;54534;43.612;1.572;2023-02-20T06:32:22;100108.16;;;17.29;47.05
67738;BME280;54534;43.612;1.572;2023-02-20T06:34:47;100106.34;;;17.30;46.94
67738;BME280;54534;43.612;1.572;2023-02-20T06:37:13;100114.34;;;17.30;47.10
67738;BME280;54534;43.612;1.572;2023-02-20T06:39:38;100110.81;;;17.29;46.79
67738;BME280;54534;43.612;1.572;2023-02-20T06:42:06;100109.00;;;17.30;46.74
67738;BME280;54534;43.612;1.572;2023-02-20T06:44:32;100117.91;;;17.29;46.80
67738;BME280;54534;43.612;1.572;2023-02-20T06:46:58;100110.81;;;17.29;47.07
67738;BME280;54534;43.612;1.572;2023-02-20T06:49:23;100123.25;;;17.29;47.22
67738;BME280;54534;43.612;1.572;2023-02-20T06:51:52;100123.25;;;17.29;46.91
67738;BME280;54534;43.612;1.572;2023-02-20T06:54:18;100119.66;;;17.30;47.10
67738;BME280;54534;43.612;1.572;2023-02-20T06:56:46;100126.75;;;17.29;47.14
67738;BME280;54534;43.612;1.572;2023-02-20T06:59:12;100133.88;;;17.29;46.82
67738;BME280;54534;43.612;1.572;2023-02-20T07:01:40;100133.00;;;17.28;47.08
67738;BME280;54534;43.612;1.572;2023-02-20T07:04:14;100135.66;;;17.28;47.07
67738;BME280;54534;43.612;1.572;2023-02-20T07:06:40;100133.00;;;17.28;47.09
67738;BME280;54534;43.612;1.572;2023-02-20T07:09:06;100138.44;;;17.27;46.89
67738;BME280;54534;43.612;1.572;2023-02-20T07:11:32;100144.59;;;17.27;47.00
67738;BME280;54534;43.612;1.572;2023-02-20T07:13:57;100149.06;;;17.27;46.85
67738;BME280;54534;43.612;1.572;2023-02-20T07:16:23;100143.75;;;17.27;47.01
67738;BME280;54534;43.612;1.572;2023-02-20T07:18:48;100159.69;;;17.27;46.87
67738;BME280;54534;43.612;1.572;2023-02-20T07:21:14;100153.50;;;17.26;46.78
67738;BME280;54534;43.612;1.572;2023-02-20T07:23:40;100152.66;;;17.26;46.98
67738;BME280;54534;43.612;1.572;2023-02-20T07:26:05;100151.81;;;17.25;46.99
67738;BME280;54534;43.612;1.572;2023-02-20T07:28:33;100163.28;;;17.26;46.74
67738;BME280;54534;43.612;1.572;2023-02-20T07:30:59;100157.97;;;17.26;46.96
67738;BME280;54534;43.612;1.572;2023-02-20T07:33:25;100155.41;;;17.24;46.77
67738;BME280;54534;43.612;1.572;2023-02-20T07:35:50;100160.81;;;17.22;46.80
67738;BME280;54534;43.612;1.572;2023-02-20T07:38:16;100164.31;;;17.23;46.72
67738;BME280;54534;43.612;1.572;2023-02-20T07:40:41;100168.78;;;17.22;46.77
67738;BME280;54534;43.612;1.572;2023-02-20T07:43:07;100157.31;;;17.22;46.74
67738;BME280;54534;43.612;1.572;2023-02-20T07:45:32;100155.50;;;17.22;46.65
67738;BME280;54534;43.612;1.572;2023-02-20T07:47:58;100156.47;;;17.21;46.62
67738;BME280;54534;43.612;1.572;2023-02-20T07:50:23;100164.31;;;17.23;46.55
67738;BME280;54534;43.612;1.572;2023-02-20T07:52:48;100164.31;;;17.23;46.66
67738;BME280;54534;43.612;1.572;2023-02-20T07:55:15;100165.19;;;17.23;46.62
67738;BME280;54534;43.612;1.572;2023-02-20T07:57:41;100168.59;;;17.26;46.40
67738;BME280;54534;43.612;1.572;2023-02-20T08:00:07;100157.97;;;17.26;46.29
67738;BME280;54534;43.612;1.572;2023-02-20T08:02:33;100161.41;;;17.28;46.44
67738;BME280;54534;43.612;1.572;2023-02-20T08:04:58;100160.44;;;17.29;46.25
67738;BME280;54534;43.612;1.572;2023-02-20T08:07:24;100162.16;;;17.30;46.24
67738;BME280;54534;43.612;1.572;2023-02-20T08:09:50;100169.19;;;17.31;46.37
67738;BME280;54534;43.612;1.572;2023-02-20T08:12:15;100169.97;;;17.33;46.10
67738;BME280;54534;43.612;1.572;2023-02-20T08:14:40;100162.00;;;17.33;46.19
67738;BME280;54534;43.612;1.572;2023-02-20T08:17:06;100161.03;;;17.34;46.02
67738;BME280;54534;43.612;1.572;2023-02-20T08:19:31;100160.09;;;17.35;46.26
67738;BME280;54534;43.612;1.572;2023-02-20T08:21:57;100160.84;;;17.37;45.80
67738;BME280;54534;43.612;1.572;2023-02-20T08:24:22;100157.25;;;17.38;46.37
67738;BME280;54534;43.612;1.572;2023-02-20T08:26:48;100154.59;;;17.38;45.94
67738;BME280;54534;43.612;1.572;2023-02-20T08:29:14;100156.22;;;17.41;45.78
67738;BME280;54534;43.612;1.572;2023-02-20T08:31:40;100159.72;;;17.41;45.97
67738;BME280;54534;43.612;1.572;2023-02-20T08:34:05;100159.72;;;17.41;45.88
67738;BME280;54534;43.612;1.572;2023-02-20T08:36:31;100173.78;;;17.43;45.65
67738;BME280;54534;43.612;1.572;2023-02-20T08:38:57;100163.22;;;17.42;45.71
67738;BME280;54534;43.612;1.572;2023-02-20T08:41:24;100158.78;;;17.42;45.77
67738;BME280;54534;43.612;1.572;2023-02-20T08:43:50;100164.84;;;17.44;45.62
67738;BME280;54534;43.612;1.572;2023-02-20T08:46:15;100159.53;;;17.44;45.84
67738;BME280;54534;43.612;1.572;2023-02-20T08:48:41;100158.59;;;17.45;45.44
67738;BME280;54534;43.612;1.572;2023-02-20T08:51:07;100158.59;;;17.45;45.85
67738;BME280;54534;43.612;1.572;2023-02-20T08:53:33;100148.81;;;17.46;45.80
67738;BME280;54534;43.612;1.572;2023-02-20T08:55:59;100152.31;;;17.47;45.80
67738;BME280;54534;43.612;1.572;2023-02-20T08:58:25;100151.38;;;17.48;45.71
67738;BME280;54534;43.612;1.572;2023-02-20T09:00:51;100147.84;;;17.47;45.75
67738;BME280;54534;43.612;1.572;2023-02-20T09:03:16;100136.34;;;17.47;45.60
67738;BME280;54534;43.612;1.572;2023-02-20T09:05:42;100143.41;;;17.48;45.67
67738;BME280;54534;43.612;1.572;2023-02-20T09:08:08;100137.97;;;17.49;45.79
67738;BME280;54534;43.612;1.572;2023-02-20T09:10:33;100130.00;;;17.49;45.86
67738;BME280;54534;43.612;1.572;2023-02-20T09:12:59;100130.00;;;17.49;45.24
67738;BME280;54534;43.612;1.572;2023-02-20T09:15:24;100133.50;;;17.50;45.69
67738;BME280;54534;43.612;1.572;2023-02-20T09:17:51;100129.91;;;17.51;45.75
67738;BME280;54534;43.612;1.572;2023-02-20T09:20:18;100130.78;;;17.51;45.33
67738;BME280;54534;43.612;1.572;2023-02-20T09:22:48;100129.91;;;17.51;45.52
67738;BME280;54534;43.612;1.572;2023-02-20T09:25:16;100116.63;;;17.51;45.46
67738;BME280;54534;43.612;1.572;2023-02-20T09:27:41;100120.97;;;17.52;45.71
67738;BME280;54534;43.612;1.572;2023-02-20T09:30:08;100120.16;;;17.51;45.09
67738;BME280;54534;43.612;1.572;2023-02-20T09:32:33;100115.66;;;17.52;45.46
67738;BME280;54534;43.612;1.572;2023-02-20T09:34:59;100107.69;;;17.52;45.47
67738;BME280;54534;43.612;1.572;2023-02-20T09:37:24;100108.53;;;17.52;45.14
67738;BME280;54534;43.612;1.572;2023-02-20T09:39:50;100105.03;;;17.52;45.46
67738;BME280;54534;43.612;1.572;2023-02-20T09:42:26;100100.56;;;17.52;45.40
67738;BME280;54534;43.612;1.572;2023-02-20T09:45:00;100101.53;;;17.51;45.26
67738;BME280;54534;43.612;1.572;2023-02-20T09:50:32;100092.59;;;17.52;45.33
67738;BME280;54534;43.612;1.572;2023-02-20T09:53:05;100103.22;;;17.52;45.16
67738;BME280;54534;43.612;1.572;2023-02-20T09:55:39;100106.75;;;17.53;45.50
67738;BME280;54534;43.612;1.572;2023-02-20T09:58:06;100108.47;;;17.54;45.36
67738;BME280;54534;43.612;1.572;2023-02-20T10:00:37;100111.13;;;17.54;45.40
67738;BME280;54534;43.612;1.572;2023-02-20T10:03:15;100114.63;;;17.54;45.35
67738;BME280;54534;43.612;1.572;2023-02-20T10:05:43;100113.78;;;17.54;45.12
67738;BME280;54534;43.612;1.572;2023-02-20T10:08:10;100106.75;;;17.53;45.41
67738;BME280;54534;43.612;1.572;2023-02-20T10:10:36;100103.16;;;17.54;45.23
67738;BME280;54534;43.612;1.572;2023-02-20T10:19:17;100109.28;;;17.54;45.33
67738;BME280;54534;43.612;1.572;2023-02-20T10:22:04;100111.94;;;17.54;45.33
67738;BME280;54534;43.612;1.572;2023-02-20T10:30:01;100111.94;;;17.54;45.04
67738;BME280;54534;43.612;1.572;2023-02-20T10:32:54;100109.28;;;17.54;45.27
67738;BME280;54534;43.612;1.572;2023-02-20T10:35:35;100098.66;;;17.54;45.12
67738;BME280;54534;43.612;1.572;2023-02-20T10:38:07;100098.66;;;17.54;45.06
67738;BME280;54534;43.612;1.572;2023-02-20T10:41:14;100092.28;;;17.57;45.18
67738;BME280;54534;43.612;1.572;2023-02-20T10:43:49;100079.09;;;17.55;44.96
67738;BME280;54534;43.612;1.572;2023-02-20T10:46:26;100081.66;;;17.57;44.99
67738;BME280;54534;43.612;1.572;2023-02-20T10:48:56;100077.19;;;17.58;45.38
67738;BME280;54534;43.612;1.572;2023-02-20T10:51:29;100075.28;;;17.60;45.07
67738;BME280;54534;43.612;1.572;2023-02-20T10:54:39;100076.25;;;17.59;45.33
67738;BME280;54534;43.612;1.572;2023-02-20T11:00:12;100073.50;;;17.60;45.18
67738;BME280;54534;43.612;1.572;2023-02-20T11:02:46;100069.16;;;17.59;44.97
67738;BME280;54534;43.612;1.572;2023-02-20T11:05:16;100065.53;;;17.60;45.19
67738;BME280;54534;43.612;1.572;2023-02-20T11:07:42;100062.84;;;17.60;44.98
67738;BME280;54534;43.612;1.572;2023-02-20T11:10:08;100059.34;;;17.60;45.05
67738;BME280;54534;43.612;1.572;2023-02-20T11:12:35;100065.44;;;17.62;45.09
67738;BME280;54534;43.612;1.572;2023-02-20T11:15:09;100055.66;;;17.62;45.26
67738;BME280;54534;43.612;1.572;2023-02-20T11:17:38;100053.00;;;17.62;44.95
67738;BME280;54534;43.612;1.572;2023-02-20T11:20:06;100052.03;;;17.63;45.16
67738;BME280;54534;43.612;1.572;2023-02-20T11:22:50;100037.06;;;17.62;44.89
67738;BME280;54534;43.612;1.572;2023-02-20T11:27:41;100030.75;;;17.63;45.29
67738;BME280;54534;43.612;1.572;2023-02-20T11:30:29;100024.50;;;17.64;44.96
67738;BME280;54534;43.612;1.572;2023-02-20T11:33:16;100022.78;;;17.63;45.16
67738;BME280;54534;43.612;1.572;2023-02-20T11:35:48;100021.84;;;17.64;45.04
67738;BME280;54534;43.612;1.572;2023-02-20T11:40:42;100008.53;;;17.64;45.03
67738;BME280;54534;43.612;1.572;2023-02-20T11:43:34;100015.56;;;17.65;44.77
67738;BME280;54534;43.612;1.572;2023-02-20T11:48:34;99995.25;;;17.64;45.20
67738;BME280;54534;43.612;1.572;2023-02-20T11:50:59;99996.94;;;17.65;45.12
67738;BME280;54534;43.612;1.572;2023-02-20T11:53:27;99985.47;;;17.65;45.24
67738;BME280;54534;43.612;1.572;2023-02-20T11:56:10;99980.97;;;17.65;45.25
67738;BME280;54534;43.612;1.572;2023-02-20T11:58:36;99978.31;;;17.65;44.96
67738;BME280;54534;43.612;1.572;2023-02-20T12:01:02;99973.00;;;17.65;44.79
67738;BME280;54534;43.612;1.572;2023-02-20T12:03:30;99972.19;;;17.65;45.00
67738;BME280;54534;43.612;1.572;2023-02-20T12:09:02;99951.72;;;17.65;45.01
67738;BME280;54534;43.612;1.572;2023-02-20T12:11:28;99947.28;;;17.66;44.95
67738;BME280;54534;43.612;1.572;2023-02-20T12:13:57;99949.84;;;17.67;44.91
67738;BME280;54534;43.612;1.572;2023-02-20T12:19:15;99940.03;;;17.68;45.16
67738;BME280;54534;43.612;1.572;2023-02-20T12:27:25;99927.59;;;17.68;45.30
67738;BME280;54534;43.612;1.572;2023-02-20T12:33:16;99919.63;;;17.68;45.30
67738;BME280;54534;43.612;1.572;2023-02-20T12:39:21;99908.97;;;17.68;45.22
67738;BME280;54534;43.612;1.572;2023-02-20T12:42:03;99906.31;;;17.68;45.34
67738;BME280;54534;43.612;1.572;2023-02-20T12:44:42;99906.31;;;17.68;44.90
67738;BME280;54534;43.612;1.572;2023-02-20T12:55:54;99877.00;;;17.70;45.33
67738;BME280;54534;43.612;1.572;2023-02-20T13:00:59;99876.13;;;17.70;45.46
67738;BME280;54534;43.612;1.572;2023-02-20T13:04:16;99866.22;;;17.72;45.24
67738;BME280;54534;43.612;1.572;2023-02-20T13:06:43;99862.72;;;17.71;45.47
67738;BME280;54534;43.612;1.572;2023-02-20T13:11:41;99862.63;;;17.73;45.46
67738;BME280;54534;43.612;1.572;2023-02-20T13:14:21;99851.03;;;17.74;45.18
67738;BME280;54534;43.612;1.572;2023-02-20T13:19:38;99832.41;;;17.74;45.46
67738;BME280;54534;43.612;1.572;2023-02-20T13:22:05;99835.06;;;17.74;45.48
67738;BME280;54534;43.612;1.572;2023-02-20T13:24:36;99831.47;;;17.75;45.26
67738;BME280;54534;43.612;1.572;2023-02-20T13:27:10;99821.56;;;17.77;45.55
67738;BME280;54534;43.612;1.572;2023-02-20T13:30:20;99821.69;;;17.75;45.56
67738;BME280;54534;43.612;1.572;2023-02-20T13:32:47;99811.88;;;17.76;45.39
67738;BME280;54534;43.612;1.572;2023-02-20T13:38:14;99810.06;;;17.76;45.53
67738;BME280;54534;43.612;1.572;2023-02-20T13:46:13;99808.25;;;17.77;45.67
67738;BME280;54534;43.612;1.572;2023-02-20T13:51:30;99789.66;;;17.77;45.53
67738;BME280;54534;43.612;1.572;2023-02-20T13:59:07;99786.03;;;17.78;45.38
67738;BME280;54534;43.612;1.572;2023-02-20T14:01:55;99785.06;;;17.79;45.23
67738;BME280;54534;43.612;1.572;2023-02-20T14:04:22;99782.41;;;17.79;45.36
67738;BME280;54534;43.612;1.572;2023-02-20T14:06:50;99783.25;;;17.79;45.25
67738;BME280;54534;43.612;1.572;2023-02-20T14:09:20;99770.81;;;17.80;45.41
67738;BME280;54534;43.612;1.572;2023-02-20T14:11:47;99769.03;;;17.81;45.50
67738;BME280;54534;43.612;1.572;2023-02-20T14:14:29;99766.38;;;17.81;45.27
67738;BME280;54534;43.612;1.572;2023-02-20T14:17:17;99761.88;;;17.81;45.63
67738;BME280;54534;43.612;1.572;2023-02-20T14:19:46;99756.56;;;17.81;45.32
67738;BME280;54534;43.612;1.572;2023-02-20T14:24:45;99760.06;;;17.82;45.52
67738;BME280;54534;43.612;1.572;2023-02-20T14:27:28;99755.59;;;17.82;45.79
67738;BME280;54534;43.612;1.572;2023-02-20T14:30:12;99755.59;;;17.82;45.48
67738;BME280;54534;43.612;1.572;2023-02-20T14:32:42;99756.56;;;17.81;45.65
67738;BME280;54534;43.612;1.572;2023-02-20T14:37:44;99748.47;;;17.83;45.78
67738;BME280;54534;43.612;1.572;2023-02-20T14:43:01;99752.94;;;17.82;45.49
67738;BME280;54534;43.612;1.572;2023-02-20T14:45:28;99749.44;;;17.82;45.64
67738;BME280;54534;43.612;1.572;2023-02-20T14:47:59;99745.81;;;17.83;45.57
67738;BME280;54534;43.612;1.572;2023-02-20T14:50:26;99743.16;;;17.83;45.27
67738;BME280;54534;43.612;1.572;2023-02-20T14:55:36;99741.38;;;17.83;45.39
67738;BME280;54534;43.612;1.572;2023-02-20T14:58:16;99742.19;;;17.84;45.26
67738;BME280;54534;43.612;1.572;2023-02-20T15:00:43;99737.72;;;17.84;45.48
67738;BME280;54534;43.612;1.572;2023-02-20T15:05:42;99730.59;;;17.85;45.64
67738;BME280;54534;43.612;1.572;2023-02-20T15:10:50;99729.66;;;17.86;45.70
67738;BME280;54534;43.612;1.572;2023-02-20T15:13:19;99725.16;;;17.86;45.49